createdAt,value
2023-05-02T00:03:27.657Z,9.90
2023-05-02T00:07:49.781Z,10.23
2023-05-02T00:12:11.750Z,9.40
2023-05-02T00:16:33.855Z,10.02
2023-05-02T00:20:57.126Z,10.18
2023-05-02T00:25:19.367Z,10.20
2023-05-02T00:29:41.666Z,9.63
2023-05-02T00:34:03.532Z,10.07
2023-05-02T00:38:25.997Z,9.85
2023-05-02T00:42:48.108Z,10.43
2023-05-02T00:47:10.631Z,10.40
2023-05-02T00:51:36.127Z,9.88
2023-05-02T00:56:02.659Z,11.07
2023-05-02T01:01:01.210Z,9.82
2023-05-02T01:05:34.205Z,10.93
2023-05-02T01:10:38.066Z,10.80
2023-05-02T01:15:06.140Z,11.15
2023-05-02T01:19:39.524Z,11.70
2023-05-02T01:24:19.027Z,11.10
2023-05-02T01:29:01.188Z,10.75
2023-05-02T01:33:25.667Z,11.48
2023-05-02T01:37:50.072Z,11.13
2023-05-02T01:42:13.754Z,10.75
2023-05-02T01:46:40.558Z,11.20
2023-05-02T01:51:04.668Z,11.23
2023-05-02T01:55:28.210Z,11.88
2023-05-02T01:59:52.010Z,12.30
2023-05-02T02:04:16.915Z,12.18
2023-05-02T02:08:38.994Z,12.70
2023-05-02T02:13:30.551Z,12.70
2023-05-02T02:18:09.266Z,12.57
2023-05-02T02:22:33.694Z,12.18
2023-05-02T02:26:56.206Z,13.43
2023-05-02T02:31:18.658Z,13.32
2023-05-02T02:35:56.827Z,13.18
2023-05-02T02:40:49.726Z,13.57
2023-05-02T02:45:46.111Z,13.65
2023-05-02T02:50:31.823Z,12.88
2023-05-02T02:55:02.109Z,12.13
2023-05-02T02:59:47.384Z,13.90
2023-05-02T03:04:11.272Z,13.07
2023-05-02T03:08:43.970Z,13.05
2023-05-02T03:13:10.664Z,14.23
2023-05-02T03:17:33.228Z,13.00
2023-05-02T03:21:56.157Z,11.45
2023-05-02T03:26:18.412Z,12.35
2023-05-02T03:30:42.060Z,12.30
2023-05-02T03:35:04.268Z,11.73
2023-05-02T03:39:32.585Z,11.98
2023-05-02T03:43:54.893Z,11.90
2023-05-02T03:48:20.145Z,11.38
2023-05-02T03:52:42.245Z,11.35
2023-05-02T03:57:05.153Z,11.55
2023-05-02T04:01:29.118Z,12.10
2023-05-02T04:05:56.622Z,11.27
2023-05-02T04:10:19.170Z,11.45
2023-05-02T04:14:48.148Z,11.32
2023-05-02T04:19:11.913Z,10.57
2023-05-02T04:23:35.178Z,10.68
2023-05-02T04:27:58.908Z,11.38
2023-05-02T04:32:21.564Z,10.40
2023-05-02T04:36:47.084Z,9.50
2023-05-02T04:41:16.420Z,8.80
2023-05-02T04:45:44.944Z,9.35
2023-05-02T04:50:13.889Z,8.90
2023-05-02T04:54:36.206Z,9.20
2023-05-02T04:58:58.695Z,8.57
2023-05-02T05:03:22.204Z,9.40
2023-05-02T05:07:45.593Z,8.45
2023-05-02T05:12:08.866Z,8.73
2023-05-02T05:16:32.265Z,7.78
2023-05-02T05:20:54.775Z,7.72
2023-05-02T05:25:17.148Z,7.30
2023-05-02T05:29:41.888Z,8.13
2023-05-02T05:34:05.391Z,8.18
2023-05-02T05:38:30.619Z,6.68
2023-05-02T05:42:53.488Z,7.45
2023-05-02T05:47:24.667Z,7.68
2023-05-02T05:51:48.666Z,6.88
2023-05-02T05:56:14.200Z,7.68
2023-05-02T06:00:42.652Z,7.75
2023-05-02T06:05:05.294Z,6.97
2023-05-02T06:09:27.891Z,7.00
2023-05-02T06:13:53.036Z,6.38
2023-05-02T06:18:15.733Z,4.90
2023-05-02T06:22:39.902Z,5.22
2023-05-02T06:27:02.671Z,3.88
2023-05-02T06:31:24.915Z,3.13
2023-05-02T06:35:55.349Z,3.65
2023-05-02T06:40:17.564Z,3.75
2023-05-02T06:44:39.624Z,4.20
2023-05-02T06:49:01.728Z,4.38
2023-05-02T06:53:24.285Z,3.88
2023-05-02T06:57:46.547Z,3.95
2023-05-02T07:02:08.945Z,4.03
2023-05-02T07:06:31.280Z,3.17
2023-05-02T07:10:53.402Z,3.65
2023-05-02T07:15:16.823Z,3.40
2023-05-02T07:19:39.447Z,4.22
2023-05-02T07:24:02.008Z,3.67
2023-05-02T07:28:24.410Z,3.83
2023-05-02T07:32:46.783Z,3.83
2023-05-02T07:37:09.272Z,3.78
2023-05-02T07:41:31.633Z,4.30
2023-05-02T07:45:54.122Z,3.53
2023-05-02T07:50:16.274Z,3.38
2023-05-02T07:54:38.311Z,4.38
2023-05-02T07:59:00.348Z,3.72
2023-05-02T08:03:22.903Z,4.50
2023-05-02T08:07:45.174Z,3.58
2023-05-02T08:12:07.414Z,5.53
2023-05-02T08:16:29.928Z,5.95
2023-05-02T08:20:53.301Z,5.78
2023-05-02T08:25:15.508Z,5.88
2023-05-02T08:29:37.452Z,4.93
2023-05-02T08:33:59.861Z,5.53
2023-05-02T08:38:22.133Z,5.00
2023-05-02T08:42:45.643Z,5.88
2023-05-02T08:47:13.873Z,4.63
2023-05-02T08:51:39.232Z,4.90
2023-05-02T08:56:02.851Z,5.65
2023-05-02T09:00:25.149Z,4.97
2023-05-02T09:04:54.460Z,5.53
2023-05-02T09:09:17.817Z,6.13
2023-05-02T09:13:48.738Z,5.53
2023-05-02T09:18:21.349Z,5.90
2023-05-02T09:22:54.090Z,6.18
2023-05-02T09:27:17.406Z,8.07
2023-05-02T09:36:09.044Z,6.80
2023-05-02T09:40:32.917Z,7.72
2023-05-02T09:44:54.926Z,8.20
2023-05-02T09:49:20.988Z,7.72
2023-05-02T09:53:47.731Z,7.80
2023-05-02T09:58:23.307Z,7.93
2023-05-02T10:02:50.533Z,8.75
2023-05-02T10:07:14.174Z,8.65
2023-05-02T10:11:44.488Z,7.95
2023-05-02T10:16:07.653Z,7.47
2023-05-02T10:20:38.056Z,8.20
2023-05-02T10:25:03.412Z,8.55
2023-05-02T10:29:32.095Z,7.97
2023-05-02T10:33:57.332Z,8.57
2023-05-02T10:38:24.199Z,9.13
2023-05-02T10:42:51.371Z,10.10
2023-05-02T10:47:25.325Z,11.02
2023-05-02T10:51:47.171Z,10.20
2023-05-02T10:56:22.964Z,9.60
2023-05-02T11:00:45.350Z,10.30
2023-05-02T11:05:08.486Z,9.18
2023-05-02T11:09:33.104Z,9.23
2023-05-02T11:13:55.086Z,8.57
2023-05-02T11:18:17.163Z,8.70
2023-05-02T11:22:40.458Z,8.85
2023-05-02T11:27:30.833Z,8.88
2023-05-02T11:31:54.012Z,9.00
2023-05-02T11:36:27.526Z,8.70
2023-05-02T11:40:56.523Z,8.75
2023-05-02T11:45:20.129Z,8.95
2023-05-02T11:49:42.319Z,9.00
2023-05-02T11:54:05.094Z,9.35
2023-05-02T11:58:32.435Z,8.20
2023-05-02T12:02:55.059Z,7.82
2023-05-02T12:07:17.344Z,8.43
2023-05-02T12:11:39.366Z,7.93
2023-05-02T12:16:02.500Z,7.97
2023-05-02T12:20:25.093Z,8.45
2023-05-02T12:24:47.932Z,7.55
2023-05-02T12:29:10.200Z,7.70
2023-05-02T12:33:48.426Z,7.88
2023-05-02T12:38:21.343Z,8.25
2023-05-02T12:42:43.599Z,7.78
2023-05-02T12:47:05.639Z,8.80
2023-05-02T12:51:28.946Z,7.60
2023-05-02T12:56:04.007Z,7.38
2023-05-02T13:00:26.006Z,8.20
2023-05-02T13:04:47.891Z,7.13
2023-05-02T13:09:09.987Z,8.18
2023-05-02T13:13:32.892Z,8.65
2023-05-02T13:17:55.353Z,9.27
2023-05-02T13:22:17.798Z,8.70
2023-05-02T13:26:40.037Z,9.20
2023-05-02T13:31:02.262Z,8.38
2023-05-02T13:35:25.094Z,8.05
2023-05-02T13:39:47.444Z,9.38
2023-05-02T13:44:09.644Z,9.20
2023-05-02T13:48:31.660Z,8.38
2023-05-02T13:52:53.997Z,8.57
2023-05-02T13:57:16.446Z,9.35
2023-05-02T14:01:40.647Z,9.30
2023-05-02T14:06:03.009Z,8.50
2023-05-02T14:10:25.712Z,7.55
2023-05-02T14:14:47.681Z,8.10
2023-05-02T14:19:09.612Z,6.55
2023-05-02T14:23:31.639Z,6.75
2023-05-02T14:27:54.280Z,5.88
2023-05-02T14:32:16.529Z,6.63
2023-05-02T14:36:38.651Z,6.75
2023-05-02T14:41:03.041Z,6.10
2023-05-02T14:45:25.739Z,4.70
2023-05-02T14:49:47.726Z,4.68
2023-05-02T14:54:09.892Z,4.78
2023-05-02T14:58:31.917Z,4.10
2023-05-02T15:02:54.749Z,3.97
2023-05-02T15:07:17.065Z,3.67
2023-05-02T15:11:39.370Z,3.55
2023-05-02T15:16:07.016Z,4.15
2023-05-02T15:20:29.315Z,4.85
2023-05-02T15:24:51.449Z,4.20
2023-05-02T15:29:13.310Z,4.60
2023-05-02T15:33:35.811Z,4.72
2023-05-02T15:37:58.068Z,5.18
2023-05-02T15:42:19.766Z,5.30
2023-05-02T15:46:46.866Z,5.55
2023-05-02T15:51:10.865Z,5.50
2023-05-02T15:55:33.031Z,5.32
2023-05-02T15:59:55.986Z,5.75
2023-05-02T16:04:18.023Z,6.97
2023-05-02T16:08:40.387Z,5.60
2023-05-02T16:13:02.641Z,5.53
2023-05-02T16:17:25.632Z,5.97
2023-05-02T16:21:47.965Z,66.20
2023-05-02T16:26:10.465Z,87.43
2023-05-02T16:30:35.609Z,19.13
2023-05-02T16:34:57.829Z,21.60
2023-05-02T16:39:20.280Z,6.47
2023-05-02T16:43:42.732Z,4.88
2023-05-02T16:48:05.464Z,5.70
2023-05-02T16:52:28.308Z,4.47
2023-05-02T16:56:50.605Z,4.78
2023-05-02T17:01:13.249Z,5.90
2023-05-02T17:05:36.192Z,6.47
2023-05-02T17:09:58.609Z,5.28
2023-05-02T17:14:21.143Z,5.38
2023-05-02T17:18:43.588Z,5.18
2023-05-02T17:23:05.795Z,5.25
2023-05-02T17:27:29.180Z,5.35
2023-05-02T17:31:51.909Z,5.10
2023-05-02T17:36:14.571Z,5.47
2023-05-02T17:40:38.134Z,6.13
2023-05-02T17:45:00.802Z,5.78
2023-05-02T17:49:23.263Z,6.22
2023-05-02T17:53:45.385Z,5.60
2023-05-02T17:58:07.678Z,4.85
2023-05-02T18:02:30.037Z,4.47
2023-05-02T18:06:52.718Z,4.05
2023-05-02T18:11:20.241Z,5.03
2023-05-02T18:15:42.797Z,4.15
2023-05-02T18:20:07.456Z,5.03
2023-05-02T18:24:31.818Z,5.03
2023-05-02T18:28:54.384Z,5.03
2023-05-02T18:33:18.910Z,5.50
2023-05-02T18:37:47.208Z,5.05
2023-05-02T18:42:10.944Z,4.93
2023-05-02T18:46:33.492Z,5.13
2023-05-02T18:50:59.116Z,5.07
2023-05-02T18:55:25.520Z,5.20
2023-05-02T18:59:48.444Z,4.80
2023-05-02T19:04:10.851Z,4.85
2023-05-02T19:08:33.014Z,4.90
2023-05-02T19:12:55.587Z,4.20
2023-05-02T19:17:20.910Z,4.90
2023-05-02T19:21:49.030Z,4.93
2023-05-02T19:26:17.380Z,4.90
2023-05-02T19:30:44.094Z,4.65
2023-05-02T19:35:09.061Z,5.28
2023-05-02T19:39:31.892Z,6.00
2023-05-02T19:43:56.733Z,5.95
2023-05-02T19:48:18.876Z,5.57
2023-05-02T19:52:41.894Z,7.35
2023-05-02T19:57:04.695Z,6.18
2023-05-02T20:01:29.545Z,6.13
2023-05-02T20:05:52.410Z,6.43
2023-05-02T20:10:15.133Z,5.43
2023-05-02T20:14:37.576Z,5.97
2023-05-02T20:19:00.146Z,5.93
2023-05-02T20:23:22.167Z,6.57
2023-05-02T20:27:44.509Z,5.53
2023-05-02T20:32:07.213Z,5.22
2023-05-02T20:36:29.785Z,5.53
2023-05-02T20:40:51.803Z,5.85
2023-05-02T20:45:14.693Z,5.82
2023-05-02T20:49:36.705Z,6.22
2023-05-02T20:53:59.506Z,4.55
2023-05-02T20:58:22.005Z,5.03
2023-05-02T21:02:44.037Z,5.70
2023-05-02T21:07:06.462Z,5.40
2023-05-02T21:11:29.011Z,6.00
2023-05-02T21:15:51.433Z,5.93
2023-05-02T21:20:13.840Z,5.97
2023-05-02T21:24:36.668Z,5.75
2023-05-02T21:28:59.115Z,6.05
2023-05-02T21:33:21.608Z,5.88
2023-05-02T21:37:43.865Z,6.38
2023-05-02T21:42:06.206Z,9.75
2023-05-02T21:46:28.531Z,6.65
2023-05-02T21:50:51.109Z,6.35
2023-05-02T21:55:13.294Z,6.15
2023-05-02T21:59:36.077Z,5.93
2023-05-02T22:03:58.861Z,6.88
2023-05-02T22:08:22.094Z,7.13
2023-05-02T22:12:44.317Z,7.00
2023-05-02T22:17:07.311Z,7.43
2023-05-02T22:21:30.256Z,7.30
2023-05-02T22:25:52.769Z,7.45
2023-05-02T22:30:14.668Z,7.43
2023-05-02T22:34:36.728Z,6.45
2023-05-02T22:38:59.169Z,6.75
2023-05-02T22:43:21.195Z,7.00
2023-05-02T22:47:43.185Z,6.78
2023-05-02T22:52:05.576Z,6.50
2023-05-02T22:56:27.776Z,6.82
2023-05-02T23:00:50.000Z,6.72
2023-05-02T23:05:12.846Z,6.50
2023-05-02T23:09:35.369Z,6.65
2023-05-02T23:13:57.748Z,6.50
2023-05-02T23:18:20.267Z,6.30
2023-05-02T23:22:46.491Z,5.53
2023-05-02T23:27:08.597Z,6.30
2023-05-02T23:31:30.771Z,5.70
2023-05-02T23:35:53.507Z,5.70
2023-05-02T23:40:16.110Z,4.75
2023-05-02T23:44:38.265Z,4.85
2023-05-02T23:49:00.625Z,5.07
2023-05-02T23:53:22.628Z,5.47
2023-05-02T23:57:44.586Z,5.00
